Time;durP1;ratioP1;P1;durP2;ratioP2;P2;SDS_P1;SDS_P2;PMS_P1;PMS_P2;Temp;Humidity;BMP_temperature;BMP_pressure;BME280_temperature;BME280_humidity;BME280_pressure;Samples;Min_cycle;Max_cycle;Signal;HPM_P1;HPM_P2
2022/05/20 00:02:26;;;;;;;3.37;2.60;;;;;;;9.72;56.35;97763.20;1644657;87;26049;-79
2022/05/20 00:04:52;;;;;;;2.85;2.15;;;;;;;9.66;56.27;97758.59;1644948;87;25782;-78
2022/05/20 00:07:19;;;;;;;4.60;2.30;;;;;;;9.63;56.27;97765.74;1644787;87;25995;-78
2022/05/20 00:09:46;;;;;;;3.83;2.45;;;;;;;9.66;56.30;97761.28;1644849;87;25880;-77
2022/05/20 00:12:12;;;;;;;3.45;2.52;;;;;;;9.63;56.38;97761.70;1675263;82;27418;-78
2022/05/20 00:14:39;;;;;;;4.80;2.50;;;;;;;9.61;56.49;97758.36;1737396;82;25741;-78
2022/05/20 00:17:06;;;;;;;4.92;2.77;;;;;;;9.62;56.42;97765.42;1737256;82;25718;-77
2022/05/20 00:19:33;;;;;;;3.67;2.27;;;;;;;9.57;56.56;97755.73;1737483;82;25689;-77
2022/05/20 00:22:01;;;;;;;5.15;2.27;;;;;;;9.59;56.71;97761.77;1739961;82;25220;-78
2022/05/20 00:24:28;;;;;;;8.38;2.60;;;;;;;9.55;56.57;97767.22;1740572;82;27488;-80
2022/05/20 00:26:56;;;;;;;5.12;2.52;;;;;;;9.50;56.63;97754.86;1740387;82;25657;-79
2022/05/20 00:29:23;;;;;;;4.37;2.85;;;;;;;9.50;56.67;97760.25;1740874;82;25812;-80
2022/05/20 00:31:51;;;;;;;4.40;2.62;;;;;;;9.46;56.77;97750.88;1740463;82;25766;-79
2022/05/20 00:34:18;;;;;;;5.03;3.00;;;;;;;9.43;56.98;97747.22;1740356;82;25880;-78
2022/05/20 00:36:45;;;;;;;4.37;2.65;;;;;;;9.40;57.05;97747.64;1740695;82;27365;-81
2022/05/20 00:39:11;;;;;;;5.53;2.80;;;;;;;9.37;57.11;97740.77;1740463;82;25777;-79
2022/05/20 00:41:39;;;;;;;3.30;2.98;;;;;;;9.30;57.13;97735.00;1740511;82;25705;-79
2022/05/20 00:44:06;;;;;;;4.53;3.00;;;;;;;9.24;57.24;97746.56;1740361;82;25684;-78
2022/05/20 00:46:33;;;;;;;6.20;2.72;;;;;;;9.22;57.32;97740.02;1740557;82;25724;-78
2022/05/20 00:49:10;;;;;;;7.67;2.80;;;;;;;9.23;57.40;97743.55;1740389;82;28185;-78
2022/05/20 00:51:48;;;;;;;4.20;2.92;;;;;;;9.12;57.10;97740.04;1680618;84;25834;-78
2022/05/20 00:54:22;;;;;;;3.55;2.40;;;;;;;9.11;57.29;97737.02;1680833;85;25875;-79
2022/05/20 00:57:11;;;;;;;3.20;2.37;;;;;;;9.15;57.21;97746.39;1681025;85;25859;-79
2022/05/20 00:59:43;;;;;;;4.40;2.35;;;;;;;9.19;57.25;97750.34;1596594;89;25841;-81
2022/05/20 01:02:15;;;;;;;3.22;1.98;;;;;;;9.25;57.29;97749.07;1596782;89;27412;-80
2022/05/20 01:04:43;;;;;;;4.90;2.27;;;;;;;9.23;57.09;97747.59;1578111;90;32487;-77
2022/05/20 01:07:10;;;;;;;3.20;2.17;;;;;;;9.22;56.87;97751.31;1549233;92;25857;-78
2022/05/20 01:09:39;;;;;;;3.22;2.42;;;;;;;9.30;56.78;97757.89;1549386;92;25830;-81
2022/05/20 01:12:08;;;;;;;4.40;2.35;;;;;;;9.33;56.85;97760.20;1524645;94;25710;-78
2022/05/20 01:14:35;;;;;;;3.27;2.62;;;;;;;9.33;56.85;97750.78;1549329;92;27554;-78
2022/05/20 01:17:03;;;;;;;5.87;2.40;;;;;;;9.36;56.86;97755.27;1549114;92;25358;-80
2022/05/20 01:19:46;;;;;;;3.47;2.33;;;;;;;9.39;56.67;97755.40;1524506;94;25852;-78
2022/05/20 01:22:17;;;;;;;3.80;2.50;;;;;;;9.37;56.63;97752.06;1545156;92;25862;-78
2022/05/20 01:24:44;;;;;;;9.58;2.37;;;;;;;9.34;56.49;97753.80;1539445;92;26145;-78
2022/05/20 01:27:10;;;;;;;4.20;2.50;;;;;;;9.38;56.48;97755.91;1544741;92;27476;-78
2022/05/20 01:29:37;;;;;;;4.00;2.00;;;;;;;9.43;56.46;97743.19;1520009;94;25539;-79
2022/05/20 01:32:04;;;;;;;5.28;2.30;;;;;;;9.42;56.52;97735.33;1544734;92;26549;-78
2022/05/20 01:34:31;;;;;;;4.58;2.52;;;;;;;9.37;56.55;97737.25;1544670;92;26177;-81
2022/05/20 01:36:57;;;;;;;4.12;2.50;;;;;;;9.33;56.62;97722.48;1520165;94;26016;-78
2022/05/20 01:39:24;;;;;;;6.70;2.90;;;;;;;9.31;56.78;97729.93;1550343;92;27466;-77
2022/05/20 01:41:59;;;;;;;4.92;2.50;;;;;;;9.36;57.10;97720.77;1555234;92;26111;-78
2022/05/20 01:44:39;;;;;;;2.83;2.12;;;;;;;9.40;56.93;97722.05;1555130;92;25731;-80
2022/05/20 01:47:26;;;;;;;5.58;2.40;;;;;;;9.40;56.92;97708.58;1552979;92;25963;-78
2022/05/20 01:50:13;;;;;;;3.40;2.80;;;;;;;9.36;56.90;97716.72;1514494;94;25892;-78
2022/05/20 01:52:45;;;;;;;5.42;2.70;;;;;;;9.38;56.95;97714.66;1515027;94;28065;-81
2022/05/20 01:55:29;;;;;;;6.20;2.60;;;;;;;9.32;56.96;97710.05;1542597;92;33173;-81
2022/05/20 01:58:10;;;;;;;6.62;2.90;;;;;;;9.28;56.91;97704.23;1598040;89;26533;-79
2022/05/20 02:00:39;;;;;;;4.60;2.58;;;;;;;9.30;56.98;97702.16;1596479;89;26092;-80
2022/05/20 02:03:23;;;;;;;5.05;2.80;;;;;;;9.28;57.02;97707.45;1571103;90;25756;-77
2022/05/20 02:06:06;;;;;;;4.12;2.65;;;;;;;9.26;57.08;97717.06;1570982;91;28128;-78
2022/05/20 02:09:10;;;;;;;5.50;2.58;;;;;;;9.19;56.98;97716.67;1571000;91;25876;-79
2022/05/20 02:11:53;;;;;;;9.48;2.52;;;;;;;9.21;56.92;97714.11;1570034;91;26987;-78
2022/05/20 02:14:25;;;;;;;4.70;2.00;;;;;;;9.26;56.85;97713.54;1571145;91;25809;-78
2022/05/20 02:17:09;;;;;;;8.98;2.90;;;;;;;9.36;56.60;97709.98;1571436;91;25963;-77
2022/05/20 02:19:42;;;;;;;4.75;2.33;;;;;;;9.47;56.59;97708.09;1545812;92;27437;-82
2022/05/20 02:22:14;;;;;;;3.85;2.58;;;;;;;9.55;56.36;97714.66;1486009;96;25750;-77
2022/05/20 02:24:42;;;;;;;3.92;2.37;;;;;;;9.65;56.10;97708.95;1503448;95;26090;-78
2022/05/20 02:27:14;;;;;;;5.97;1.87;;;;;;;9.76;55.96;97707.04;1492021;95;25833;-79
2022/05/20 02:29:47;;;;;;;5.22;2.52;;;;;;;9.87;55.61;97702.95;1483665;96;32473;-77
2022/05/20 02:35:02;;;;;;;5.33;2.25;;;;;;;10.17;54.90;97700.78;1399913;102;25979;-79
2022/05/20 02:37:36;;;;;;;3.22;1.92;;;;;;;10.30;54.72;97700.35;1399849;102;26027;-80
2022/05/20 02:40:08;;;;;;;4.10;1.98;;;;;;;10.40;54.49;97695.40;1383509;103;25889;-76
2022/05/20 02:42:35;;;;;;;5.20;2.08;;;;;;;10.50;54.46;97699.60;1384255;103;33386;-77
2022/05/20 02:45:04;;;;;;;5.40;2.25;;;;;;;10.56;54.20;97705.52;1391298;100;27436;-78
2022/05/20 02:47:33;;;;;;;3.95;2.02;;;;;;;10.64;53.86;97703.97;1407299;100;25976;-78
2022/05/20 02:50:08;;;;;;;5.85;2.40;;;;;;;10.72;53.61;97694.34;1423334;100;25888;-80
2022/05/20 02:52:35;;;;;;;4.28;2.22;;;;;;;10.81;53.38;97703.91;1407289;101;26475;-80
2022/05/20 02:55:04;;;;;;;4.35;2.02;;;;;;;10.90;53.09;97707.23;1423260;99;25821;-77
2022/05/20 02:57:30;;;;;;;4.87;2.10;;;;;;;10.97;52.87;97703.52;1406906;101;27434;-81
2022/05/20 03:05:28;;;;;;;2.80;2.20;;;;;;;11.19;52.29;97708.20;1391617;103;26411;-82
2022/05/20 03:07:54;;;;;;;5.17;2.17;;;;;;;11.22;52.13;97708.31;1391959;103;25809;-78
2022/05/20 03:10:22;;;;;;;6.70;2.10;;;;;;;11.25;51.91;97703.30;1449002;97;27441;-77
2022/05/20 03:12:48;;;;;;;3.58;2.20;;;;;;;11.31;51.71;97700.30;1470701;97;25891;-78
2022/05/20 03:15:17;;;;;;;5.15;2.17;;;;;;;11.37;51.44;97700.28;1469233;97;25848;-78
2022/05/20 03:17:43;;;;;;;3.80;1.98;;;;;;;11.42;51.28;97699.67;1470235;96;25780;-77
2022/05/20 03:20:11;;;;;;;12.30;2.30;;;;;;;11.47;51.11;97698.53;1581334;90;25765;-78
2022/05/20 03:22:38;;;;;;;6.17;2.30;;;;;;;11.53;50.97;97703.08;1588320;88;27443;-77
2022/05/20 03:25:06;;;;;;;4.30;2.20;;;;;;;11.56;50.85;97702.67;1588578;90;25819;-77
2022/05/20 03:27:33;;;;;;;6.58;2.10;;;;;;;11.58;50.80;97699.24;1588618;89;26616;-79
2022/05/20 03:30:01;;;;;;;4.40;1.95;;;;;;;11.62;50.75;97700.46;1588386;90;25844;-77
2022/05/20 03:32:28;;;;;;;3.25;2.02;;;;;;;11.65;50.53;97702.75;1588569;90;26116;-79
2022/05/20 03:34:57;;;;;;;3.67;2.12;;;;;;;11.68;50.47;97702.34;1588673;90;27337;-79
2022/05/20 03:37:24;;;;;;;4.70;1.60;;;;;;;11.71;50.37;97708.66;1592817;84;25820;-79
2022/05/20 03:39:52;;;;;;;3.85;2.05;;;;;;;11.74;50.27;97709.59;1692786;84;26038;-78
2022/05/20 03:42:19;;;;;;;3.37;1.77;;;;;;;11.76;50.20;97702.66;1692820;84;25846;-78
2022/05/20 03:44:45;;;;;;;2.98;2.45;;;;;;;11.76;50.24;97700.78;1692729;84;25719;-78
2022/05/20 03:47:12;;;;;;;11.30;2.55;;;;;;;11.76;50.21;97704.01;1692841;84;27361;-78
2022/05/20 03:49:42;;;;;;;5.62;2.25;;;;;;;11.75;50.23;97699.12;1692693;84;25759;-78
2022/05/20 03:52:10;;;;;;;8.83;3.52;;;;;;;11.77;50.22;97694.33;1692741;84;25754;-76
2022/05/20 03:54:38;;;;;;;5.83;3.47;;;;;;;11.81;50.13;97699.64;1692984;84;25758;-75
2022/05/20 03:57:09;;;;;;;6.97;3.83;;;;;;;11.85;50.25;97694.61;1692864;84;25667;-75
2022/05/20 03:59:37;;;;;;;8.00;2.90;;;;;;;11.85;50.18;97686.50;1688812;84;27431;-77
2022/05/20 04:02:08;;;;;;;9.55;2.90;;;;;;;11.91;50.15;97682.96;1692854;83;25769;-74
2022/05/20 04:04:41;;;;;;;7.50;3.00;;;;;;;11.98;49.96;97692.39;1693044;84;25751;-75
2022/05/20 04:07:13;;;;;;;6.17;2.75;;;;;;;12.04;50.00;97691.55;1692919;84;25874;-75
2022/05/20 04:09:41;;;;;;;7.83;2.30;;;;;;;12.10;49.99;97690.69;1693206;84;25741;-78
2022/05/20 04:12:25;;;;;;;5.60;2.67;;;;;;;12.17;49.89;97684.22;1692783;84;27493;-76
2022/05/20 04:14:53;;;;;;;10.35;4.08;;;;;;;12.24;49.94;97697.71;1692958;83;25430;-77
2022/05/20 04:17:20;;;;;;;6.97;3.45;;;;;;;12.36;49.67;97684.33;1692883;84;26333;-77
2022/05/20 04:19:47;;;;;;;4.20;3.35;;;;;;;12.50;49.50;97689.99;1692998;84;26464;-79
2022/05/20 04:22:18;;;;;;;7.58;3.47;;;;;;;12.65;49.21;97693.77;1698177;84;25872;-78
2022/05/20 04:24:45;;;;;;;8.20;2.90;;;;;;;12.78;49.31;97699.11;1703909;84;27515;-77
2022/05/20 04:27:12;;;;;;;5.12;2.80;;;;;;;12.90;49.07;97691.94;1703920;84;25775;-79
2022/05/20 04:29:39;;;;;;;6.20;3.10;;;;;;;12.97;49.12;97686.77;1703960;84;25824;-77
2022/05/20 04:32:06;;;;;;;5.22;2.58;;;;;;;13.06;48.90;97690.03;1703895;84;25738;-77
2022/05/20 04:34:33;;;;;;;7.15;2.72;;;;;;;13.15;48.76;97678.45;1703924;84;25997;-77
2022/05/20 04:37:00;;;;;;;7.03;2.75;;;;;;;13.29;48.44;97676.73;1703868;84;27378;-77
2022/05/20 04:39:27;;;;;;;4.92;2.20;;;;;;;13.44;48.38;97680.99;1703795;84;25741;-77
2022/05/20 04:47:29;;;;;;;6.15;2.62;;;;;;;13.84;47.64;97684.98;1703632;84;25871;-78
2022/05/20 04:49:56;;;;;;;5.40;1.80;;;;;;;14.00;47.40;97683.03;1703550;84;27494;-80
2022/05/20 04:52:23;;;;;;;2.52;1.50;;;;;;;14.14;47.17;97685.56;1703815;84;25714;-77
2022/05/20 04:54:51;;;;;;;4.75;1.90;;;;;;;14.24;46.97;97684.00;1703655;84;25777;-78
2022/05/20 04:57:38;;;;;;;4.12;1.52;;;;;;;14.37;46.86;97689.77;1703658;84;25766;-79
2022/05/20 05:00:13;;;;;;;5.30;1.95;;;;;;;14.48;46.56;97684.98;1703917;84;25674;-80
2022/05/20 05:02:41;;;;;;;2.80;1.70;;;;;;;14.59;46.55;97686.91;1703956;84;27436;-78
2022/05/20 05:05:11;;;;;;;2.95;1.95;;;;;;;14.70;46.47;97682.58;1703790;84;25721;-79
2022/05/20 05:07:42;;;;;;;3.35;1.65;;;;;;;14.78;46.25;97680.36;1711218;82;25782;-79
2022/05/20 05:10:11;;;;;;;5.25;1.95;;;;;;;14.88;46.25;97692.55;1728065;82;26479;-79
2022/05/20 05:12:38;;;;;;;6.08;1.70;;;;;;;15.00;45.75;97694.77;1730493;82;25698;-81
2022/05/20 05:15:07;;;;;;;1.65;1.45;;;;;;;15.12;45.58;97686.94;1730539;82;28046;-78
2022/05/20 05:20:10;;;;;;;5.35;2.10;;;;;;;15.23;45.19;97688.02;1668853;85;25804;-78
2022/05/20 05:22:37;;;;;;;7.35;2.10;;;;;;;15.28;45.79;97684.09;1641463;85;25804;-78
2022/05/20 05:25:04;;;;;;;6.87;2.40;;;;;;;15.31;45.51;97689.59;1638424;87;25769;-78
2022/05/20 05:27:31;;;;;;;4.97;1.52;;;;;;;15.32;45.65;97679.84;1638459;87;28293;-77
2022/05/20 05:29:57;;;;;;;6.92;2.55;;;;;;;15.35;45.41;97675.27;1638378;87;25867;-77
2022/05/20 05:32:24;;;;;;;7.00;2.10;;;;;;;15.37;45.41;97685.92;1638355;87;25841;-80
2022/05/20 05:34:50;;;;;;;6.50;1.82;;;;;;;15.39;45.33;97686.52;1638161;87;26389;-79
2022/05/20 05:37:17;;;;;;;8.28;1.92;;;;;;;15.42;45.16;97684.70;1638342;87;25936;-78
2022/05/20 05:39:43;;;;;;;4.45;2.15;;;;;;;15.46;45.21;97678.53;1638448;87;28193;-80
2022/05/20 05:42:10;;;;;;;3.83;1.67;;;;;;;15.54;45.04;97675.18;1637976;87;25817;-79
2022/05/20 05:44:37;;;;;;;6.72;2.00;;;;;;;15.61;44.79;97663.66;1638469;87;25332;-78
2022/05/20 05:47:04;;;;;;;4.05;1.82;;;;;;;15.71;44.69;97676.14;1638460;87;26344;-81
2022/05/20 05:49:31;;;;;;;5.87;1.70;;;;;;;15.82;44.64;97667.96;1638516;87;25303;-81
2022/05/20 05:51:58;;;;;;;3.83;1.98;;;;;;;15.94;44.69;97665.22;1638201;87;27563;-78
2022/05/20 05:54:24;;;;;;;4.65;1.60;;;;;;;16.04;44.34;97663.28;1638248;87;25901;-77
2022/05/20 05:56:51;;;;;;;5.33;1.60;;;;;;;16.17;44.05;97657.03;1632512;87;25860;-80
2022/05/20 05:59:17;;;;;;;4.17;1.90;;;;;;;16.32;43.73;97661.95;1612349;88;26330;-78
2022/05/20 06:01:44;;;;;;;4.67;2.37;;;;;;;16.45;44.09;97667.65;1612284;88;25908;-78
2022/05/20 06:04:10;;;;;;;3.17;1.72;;;;;;;16.61;44.09;97665.52;1612171;88;27551;-77
2022/05/20 06:06:38;;;;;;;5.83;1.80;;;;;;;16.73;43.73;97661.41;1612046;88;25766;-78
2022/05/20 06:09:04;;;;;;;2.50;1.90;;;;;;;16.85;43.76;97663.02;1612211;88;25835;-78
2022/05/20 06:11:31;;;;;;;3.47;1.67;;;;;;;17.03;43.29;97661.95;1612273;88;25868;-81
2022/05/20 06:13:57;;;;;;;6.62;1.87;;;;;;;17.17;43.25;97656.47;1612229;88;25750;-77
2022/05/20 06:16:24;;;;;;;6.25;2.08;;;;;;;17.35;43.07;97658.14;1611958;88;27551;-79
2022/05/20 06:18:51;;;;;;;5.80;1.72;;;;;;;17.47;42.60;97649.33;1612091;88;25912;-82
2022/05/20 06:21:18;;;;;;;3.80;2.15;;;;;;;17.59;42.31;97658.25;1612132;88;26500;-78
2022/05/20 06:23:44;;;;;;;2.62;1.70;;;;;;;17.74;41.96;97658.23;1611995;87;26842;-77
2022/05/20 06:26:11;;;;;;;5.80;1.77;;;;;;;17.90;42.02;97651.88;1684585;82;25403;-79
2022/05/20 06:28:37;;;;;;;7.78;1.67;;;;;;;18.02;41.79;97654.50;1730598;82;27503;-78
2022/05/20 06:31:04;;;;;;;4.37;1.57;;;;;;;18.14;41.62;97656.03;1730690;82;25483;-76
2022/05/20 06:33:31;;;;;;;6.45;1.90;;;;;;;18.31;41.30;97651.89;1730575;82;26311;-77
2022/05/20 06:41:28;;;;;;;6.70;1.90;;;;;;;18.66;40.90;97649.59;1730790;82;27468;-76
2022/05/20 06:43:55;;;;;;;5.42;1.77;;;;;;;18.80;40.50;97651.92;1730526;82;25670;-77
2022/05/20 06:46:22;;;;;;;4.65;1.80;;;;;;;18.93;40.46;97650.97;1730650;82;26428;-77
2022/05/20 06:48:55;;;;;;;2.12;1.35;;;;;;;19.04;40.14;97655.45;1730603;82;25880;-78
2022/05/20 06:51:26;;;;;;;4.87;2.20;;;;;;;19.14;39.88;97651.15;1730694;82;25892;-78
2022/05/20 06:53:56;;;;;;;6.17;1.80;;;;;;;19.23;39.80;97647.67;1730692;82;28146;-78
2022/05/20 06:56:27;;;;;;;4.30;1.90;;;;;;;19.33;39.71;97651.03;1730604;82;25683;-78
2022/05/20 06:58:55;;;;;;;4.35;1.85;;;;;;;19.44;39.70;97645.37;1730959;82;25722;-78
2022/05/20 07:01:22;;;;;;;3.80;1.72;;;;;;;19.56;39.46;97656.17;1730753;82;26675;-78
2022/05/20 07:03:49;;;;;;;4.03;1.92;;;;;;;19.66;39.38;97643.94;1730672;82;26437;-77
2022/05/20 07:06:17;;;;;;;3.72;1.62;;;;;;;19.78;39.31;97639.09;1730781;82;27505;-78
2022/05/20 07:08:48;;;;;;;9.93;2.08;;;;;;;19.92;39.15;97640.00;1730600;82;25632;-78
2022/05/20 07:11:13;;;;;;;10.78;2.42;;;;;;;20.05;39.07;97636.75;1730843;82;25704;-76
2022/05/20 07:13:41;;;;;;;5.05;1.85;;;;;;;20.20;38.94;97638.20;1730768;82;26624;-80
2022/05/20 07:16:08;;;;;;;7.42;2.17;;;;;;;20.33;38.71;97634.14;1730369;82;25659;-81
2022/05/20 07:18:35;;;;;;;5.20;1.77;;;;;;;20.44;38.62;97627.09;1730838;82;27452;-75
2022/05/20 07:21:03;;;;;;;6.83;2.02;;;;;;;20.60;38.67;97623.03;1730792;82;25410;-79
2022/05/20 07:23:31;;;;;;;2.92;2.00;;;;;;;20.72;38.58;97618.95;1733659;82;26627;-78
2022/05/20 07:25:59;;;;;;;7.00;1.80;;;;;;;20.91;38.66;97622.53;1735663;82;25796;-78
2022/05/20 07:28:26;;;;;;;3.08;2.10;;;;;;;21.06;38.26;97627.50;1735660;82;25703;-77
2022/05/20 07:30:52;;;;;;;6.35;1.80;;;;;;;21.23;38.23;97633.31;1735847;82;27329;-82
2022/05/20 07:33:19;;;;;;;6.15;2.12;;;;;;;21.36;38.02;97630.02;1735576;82;26451;-78
2022/05/20 07:35:46;;;;;;;6.15;2.22;;;;;;;21.50;37.85;97638.78;1735701;82;25737;-79
2022/05/20 07:38:13;;;;;;;4.90;1.98;;;;;;;21.64;37.50;97639.05;1735685;82;26572;-79
2022/05/20 07:40:43;;;;;;;6.95;1.90;;;;;;;22.02;37.55;97621.69;1735516;82;25776;-79
2022/05/20 07:43:11;;;;;;;5.97;1.77;;;;;;;22.02;37.55;97621.69;1735700;82;27469;-77
2022/05/20 07:45:37;;;;;;;4.35;1.90;;;;;;;22.46;36.92;97634.98;1735650;82;26326;-78
2022/05/20 07:48:05;;;;;;;6.50;2.10;;;;;;;22.83;36.72;97629.59;1735626;82;25769;-78
2022/05/20 07:50:40;;;;;;;4.08;2.05;;;;;;;23.23;36.69;97633.45;1735757;82;25720;-80
2022/05/20 07:53:23;;;;;;;3.60;1.67;;;;;;;23.67;36.24;97627.03;1720351;83;25872;-77
2022/05/20 07:56:07;;;;;;;5.25;1.60;;;;;;;24.14;35.88;97629.61;1720319;83;27401;-79
2022/05/20 07:58:50;;;;;;;2.75;1.75;;;;;;;24.41;35.46;97624.32;1715258;83;25786;-76
2022/05/20 08:01:25;;;;;;;4.22;2.00;;;;;;;24.57;35.22;97624.40;1715585;83;25789;-80
2022/05/20 08:06:48;;;;;;;2.50;1.98;;;;;;;25.15;35.44;97620.00;1629111;88;25963;-78
2022/05/20 08:09:14;;;;;;;2.40;1.65;;;;;;;25.63;34.51;97615.64;1629287;88;27647;-78
2022/05/20 08:11:41;;;;;;;2.58;1.95;;;;;;;25.92;33.87;97612.08;1629251;87;25825;-77
2022/05/20 08:14:07;;;;;;;5.60;2.15;;;;;;;26.20;33.62;97619.84;1629433;87;25788;-77
2022/05/20 08:16:34;;;;;;;4.42;1.87;;;;;;;26.39;33.59;97621.14;1629373;88;25785;-83
2022/05/20 08:19:01;;;;;;;4.50;1.75;;;;;;;26.50;33.62;97618.41;1644218;86;25803;-79
2022/05/20 08:21:28;;;;;;;45.63;2.80;;;;;;;26.58;33.45;97620.44;1618187;88;27522;-80
2022/05/20 08:23:54;;;;;;;5.30;1.77;;;;;;;26.73;33.37;97625.66;1617757;88;26428;-78
2022/05/20 08:26:21;;;;;;;4.35;2.02;;;;;;;26.87;32.86;97618.14;1618326;88;25842;-78
2022/05/20 08:28:48;;;;;;;2.00;1.80;;;;;;;26.88;32.99;97618.41;1617925;88;25738;-78
2022/05/20 08:31:16;;;;;;;3.35;2.00;;;;;;;26.82;33.42;97621.02;1618112;88;25328;-78
2022/05/20 08:33:43;;;;;;;3.75;1.90;;;;;;;26.72;33.32;97622.63;1618010;88;28631;-83
2022/05/20 08:36:10;;;;;;;4.12;1.80;;;;;;;26.57;33.19;97626.31;1606564;88;25851;-78
2022/05/20 08:38:37;;;;;;;4.67;1.90;;;;;;;26.30;33.28;97629.91;1600934;89;25800;-77
2022/05/20 08:41:04;;;;;;;4.25;1.72;;;;;;;26.03;33.31;97628.73;1601022;89;25826;-78
2022/05/20 08:43:33;;;;;;;9.35;2.50;;;;;;;25.88;33.40;97633.16;1601080;89;25774;-78
2022/05/20 08:46:02;;;;;;;3.12;1.90;;;;;;;25.65;33.75;97629.98;1601108;89;28274;-81
2022/05/20 08:48:29;;;;;;;6.55;2.17;;;;;;;25.42;34.25;97635.31;1600679;89;25764;-77
2022/05/20 08:50:57;;;;;;;4.95;1.75;;;;;;;25.17;34.52;97628.81;1636221;87;25740;-76
2022/05/20 08:53:40;;;;;;;7.37;1.90;;;;;;;25.04;34.63;97629.00;1639162;87;25928;-79
2022/05/20 08:56:15;;;;;;;5.83;1.90;;;;;;;24.82;34.73;97634.83;1641100;87;25812;-83
2022/05/20 08:58:47;;;;;;;3.25;1.85;;;;;;;24.61;35.34;97635.12;1624222;88;27477;-77
2022/05/20 09:01:14;;;;;;;5.03;2.10;;;;;;;24.52;35.34;97631.35;1575902;91;25811;-81
2022/05/20 09:03:42;;;;;;;6.92;2.37;;;;;;;24.48;35.56;97633.08;1593413;89;25835;-82
2022/05/20 09:06:13;;;;;;;4.17;2.42;;;;;;;24.47;35.57;97631.44;1595576;89;26553;-77
2022/05/20 09:08:40;;;;;;;4.78;2.00;;;;;;;24.46;35.90;97631.17;1595750;88;25849;-78
2022/05/20 09:11:14;;;;;;;6.15;2.80;;;;;;;24.36;35.72;97627.16;1595582;89;27495;-84
2022/05/20 09:16:30;;;;;;;3.62;2.12;;;;;;;24.24;35.85;97628.96;1595586;89;25894;-76
2022/05/20 09:19:17;;;;;;;2.37;1.85;;;;;;;24.11;35.57;97621.91;1595415;89;26400;-78
2022/05/20 09:21:52;;;;;;;5.28;2.00;;;;;;;24.06;35.77;97633.25;1581550;89;26626;-80
2022/05/20 09:24:22;;;;;;;3.42;2.25;;;;;;;24.08;36.02;97632.14;1574281;90;28096;-80
2022/05/20 09:26:54;;;;;;;3.83;2.20;;;;;;;24.04;36.05;97625.83;1536837;93;26037;-80
2022/05/20 09:29:45;;;;;;;;;;;;;;;24.08;36.40;97615.59;1535520;93;26006;-78
2022/05/20 09:32:32;;;;;;;3.17;2.25;;;;;;;24.12;36.08;97605.63;1533654;93;25748;-77
2022/05/20 09:35:19;;;;;;;6.58;2.40;;;;;;;24.18;36.06;97609.41;1521091;93;25911;-81
2022/05/20 09:37:49;;;;;;;2.17;2.00;;;;;;;24.32;36.22;97602.65;1537288;92;27659;-77
2022/05/20 09:40:38;;;;;;;4.00;2.05;;;;;;;24.49;36.07;97597.47;1517312;94;25821;-79
2022/05/20 09:43:28;;;;;;;6.83;2.45;;;;;;;24.66;36.08;97591.43;1547437;92;25848;-82
2022/05/20 09:45:58;;;;;;;3.52;1.75;;;;;;;24.75;36.22;97587.70;1529255;93;26578;-79
2022/05/20 09:48:50;;;;;;;2.87;2.17;;;;;;;24.89;35.97;97585.57;1532284;93;25847;-79
2022/05/20 09:51:22;;;;;;;5.03;2.00;;;;;;;25.00;36.65;97578.24;1540655;93;27364;-78
2022/05/20 09:54:02;;;;;;;3.65;2.15;;;;;;;25.40;36.45;97572.61;1537817;93;26079;-78
2022/05/20 09:56:33;;;;;;;2.42;1.95;;;;;;;25.88;36.89;97567.35;1484175;96;26865;-77
2022/05/20 09:59:17;;;;;;;10.70;2.47;;;;;;;26.19;36.19;97559.53;1450950;98;26403;-77
2022/05/20 10:01:55;;;;;;;4.85;1.87;;;;;;;26.14;35.94;97555.48;1484240;96;25837;-83
2022/05/20 10:04:26;;;;;;;5.30;2.15;;;;;;;26.14;36.06;97554.09;1450186;98;27531;-78
2022/05/20 10:06:57;;;;;;;3.10;2.05;;;;;;;26.50;36.12;97555.56;1483197;96;25935;-80
2022/05/20 10:09:56;;;;;;;2.42;1.80;;;;;;;26.96;35.76;97552.34;1462173;97;25948;-82
2022/05/20 10:12:28;;;;;;;4.00;1.72;;;;;;;27.28;34.86;97542.41;1480751;94;26304;-84
2022/05/20 10:14:57;;;;;;;;;;;;;;;27.76;34.78;97543.94;1530726;93;25857;-77
2022/05/20 10:17:49;;;;;;;3.75;1.92;;;;;;;27.76;34.65;97544.50;1535921;93;28197;-77
2022/05/20 10:20:27;;;;;;;6.70;1.80;;;;;;;27.90;34.56;97546.58;1518454;94;25814;-84
2022/05/20 10:23:20;;;;;;;4.05;1.75;;;;;;;28.19;34.18;97537.18;1512619;94;25869;-79
2022/05/20 10:26:08;;;;;;;5.17;2.12;;;;;;;28.48;33.80;97536.60;1479403;95;27502;-78
2022/05/20 10:34:42;;;;;;;2.80;1.57;;;;;;;29.12;33.05;97523.48;1564443;91;26571;-83
2022/05/20 10:37:36;;;;;;;2.58;1.67;;;;;;;29.29;32.45;97522.08;1544958;92;25766;-77
2022/05/20 10:40:17;;;;;;;2.95;1.60;;;;;;;29.48;31.93;97519.76;1545334;92;25784;-80
2022/05/20 10:43:21;;;;;;;2.22;1.60;;;;;;;29.48;31.96;97515.59;1545258;92;25958;-79
2022/05/20 10:49:12;;;;;;;2.10;1.72;;;;;;;29.63;32.07;97510.89;1497735;95;25772;-76
2022/05/20 10:52:02;;;;;;;2.95;2.15;;;;;;;29.84;32.22;97511.54;1497947;95;25921;-82
2022/05/20 10:55:06;;;;;;;2.17;1.92;;;;;;;29.99;32.12;97508.23;1498039;95;25787;-76
2022/05/20 10:57:53;;;;;;;3.87;1.80;;;;;;;30.06;31.95;97509.94;1498127;95;25776;-80
2022/05/20 11:00:32;;;;;;;2.52;1.85;;;;;;;30.15;31.76;97500.14;1497289;95;27392;-80
2022/05/20 11:03:25;;;;;;;3.12;1.77;;;;;;;30.25;31.76;97491.39;1497390;94;25612;-82
2022/05/20 11:06:12;;;;;;;2.60;1.67;;;;;;;30.25;31.54;97493.60;1492160;94;25882;-79
2022/05/20 11:09:03;;;;;;;2.15;1.70;;;;;;;30.29;31.48;97491.79;1507603;94;25888;-78
2022/05/20 11:12:03;;;;;;;7.80;2.00;;;;;;;30.19;31.50;97484.41;1546859;91;25870;-76
2022/05/20 11:14:46;;;;;;;1.85;1.67;;;;;;;30.01;31.40;97496.20;1579019;90;27390;-80
2022/05/20 11:17:44;;;;;;;1.80;1.70;;;;;;;30.01;31.63;97490.05;1569050;91;26636;-78
2022/05/20 11:20:22;;;;;;;4.15;1.98;;;;;;;29.96;31.82;97480.49;1580812;90;25769;-78
2022/05/20 11:23:09;;;;;;;6.08;2.00;;;;;;;30.08;31.89;97474.20;1571535;91;26589;-80
2022/05/20 11:26:07;;;;;;;2.95;1.77;;;;;;;30.32;31.71;97479.13;1570003;89;26900;-78
2022/05/20 11:28:51;;;;;;;4.12;2.00;;;;;;;30.39;31.80;97471.08;1584594;90;27434;-79
2022/05/20 11:31:38;;;;;;;3.50;1.70;;;;;;;30.37;31.97;97467.23;1586667;88;25762;-77
2022/05/20 11:34:46;;;;;;;2.70;1.75;;;;;;;30.53;31.83;97466.64;1641625;86;26512;-80
2022/05/20 11:37:33;;;;;;;2.42;2.00;;;;;;;30.82;31.18;97472.14;1625702;87;25825;-80
2022/05/20 11:40:32;;;;;;;2.80;1.70;;;;;;;31.01;30.66;97465.51;1617096;88;25857;-79
2022/05/20 11:43:12;;;;;;;3.50;1.85;;;;;;;31.30;30.31;97466.55;1617086;88;27402;-80
2022/05/20 11:45:47;;;;;;;4.60;1.70;;;;;;;31.46;29.69;97460.55;1616781;88;25902;-80
2022/05/20 11:48:37;;;;;;;5.15;2.00;;;;;;;31.54;29.41;97466.59;1625858;88;26141;-80
2022/05/20 11:51:29;;;;;;;2.72;1.80;;;;;;;31.57;29.88;97465.09;1625925;88;26406;-81
2022/05/20 11:54:22;;;;;;;2.52;1.85;;;;;;;31.38;29.22;97458.10;1625926;88;25936;-80
2022/05/20 11:57:02;;;;;;;3.40;1.62;;;;;;;31.06;29.87;97449.95;1564335;91;28239;-80
2022/05/20 11:59:51;;;;;;;2.77;1.60;;;;;;;30.93;29.97;97441.30;1564259;90;25908;-78
2022/05/20 12:02:19;;;;;;;2.05;1.75;;;;;;;30.99;30.24;97441.92;1564201;91;25825;-82
2022/05/20 12:04:48;;;;;;;6.72;1.75;;;;;;;30.62;29.96;97442.34;1564192;91;26438;-80
2022/05/20 12:07:19;;;;;;;6.20;1.85;;;;;;;30.47;29.41;97440.13;1576692;90;26453;-81
2022/05/20 12:09:50;;;;;;;3.10;1.83;;;;;;;30.23;29.65;97436.05;1591862;90;27408;-79
2022/05/20 12:12:31;;;;;;;5.08;2.52;;;;;;;30.32;30.00;97424.27;1591529;90;25743;-81
2022/05/20 12:15:15;;;;;;;11.40;2.12;;;;;;;30.36;29.72;97428.01;1559051;91;26733;-82
2022/05/20 12:17:49;;;;;;;4.10;1.10;;;;;;;30.37;29.71;97429.64;1545389;92;26502;-79
2022/05/20 12:26:28;;;;;;;3.10;1.55;;;;;;;30.67;28.53;97429.00;1515492;94;25853;-82
2022/05/20 12:28:55;;;;;;;2.10;1.50;;;;;;;30.69;28.63;97418.34;1521612;94;25820;-80
2022/05/20 12:31:33;;;;;;;1.45;1.30;;;;;;;30.77;28.88;97427.22;1524681;94;25843;-86
2022/05/20 12:34:05;;;;;;;1.35;1.25;;;;;;;30.68;29.21;97429.81;1524608;94;25875;-79
2022/05/20 12:36:41;;;;;;;2.60;1.40;;;;;;;30.73;29.48;97421.27;1477143;97;26786;-79
2022/05/20 12:39:13;;;;;;;1.82;1.25;;;;;;;30.75;29.81;97421.73;1477065;97;25956;-79
2022/05/20 12:41:54;;;;;;;3.02;1.27;;;;;;;30.76;29.23;97419.19;1477244;97;25901;-77
2022/05/20 12:44:26;;;;;;;2.30;1.67;;;;;;;30.68;29.18;97418.09;1477007;97;25915;-81